Time;durP1;ratioP1;P1;durP2;ratioP2;P2;SDS_P1;SDS_P2;PMS_P1;PMS_P2;Temp;Humidity;BMP_temperature;BMP_pressure;BME280_temperature;BME280_humidity;BME280_pressure;Samples;Min_cycle;Max_cycle;Signal;HPM_P1;HPM_P2
2023/01/07 00:01:35;;;;;;;2.65;2.15;;;10.40;99.90;;;;;;4863213;29;20044;-78
2023/01/07 00:04:02;;;;;;;2.78;2.58;;;10.50;99.90;;;;;;4862388;29;20057;-78
2023/01/07 00:06:32;;;;;;;5.10;3.45;;;10.40;99.90;;;;;;4863115;29;20038;-78
2023/01/07 00:08:58;;;;;;;5.95;2.88;;;10.60;99.90;;;;;;4851044;29;20099;-78
2023/01/07 00:11:26;;;;;;;4.47;3.90;;;10.30;99.90;;;;;;4864153;29;20544;-78
2023/01/07 00:13:53;;;;;;;6.10;3.22;;;10.30;99.90;;;;;;4862779;29;20030;-78
2023/01/07 00:16:26;;;;;;;4.65;4.13;;;10.30;99.90;;;;;;4847414;29;20038;-78
2023/01/07 00:18:53;;;;;;;4.45;4.05;;;10.30;99.90;;;;;;4863125;29;20040;-78
2023/01/07 00:21:20;;;;;;;5.07;4.57;;;10.30;99.90;;;;;;4864001;29;20033;-78
2023/01/07 00:23:47;;;;;;;3.88;3.60;;;10.30;99.90;;;;;;4846212;29;20419;-78
2023/01/07 00:26:18;;;;;;;4.43;3.90;;;10.30;99.90;;;;;;4865607;29;20059;-78
2023/01/07 00:28:46;;;;;;;4.28;3.80;;;10.30;99.90;;;;;;4863147;29;20030;-78
2023/01/07 00:31:18;;;;;;;6.65;4.45;;;10.30;99.90;;;;;;4848652;29;20029;-78
2023/01/07 00:36:18;;;;;;;9.20;3.55;;;10.30;99.90;;;;;;4864117;29;20046;-78
2023/01/07 00:38:44;;;;;;;3.25;2.92;;;10.40;99.90;;;;;;4863535;29;20022;-77
2023/01/07 00:41:10;;;;;;;3.85;3.55;;;10.60;99.90;;;;;;4864985;29;20041;-78
2023/01/07 00:43:36;;;;;;;3.05;2.85;;;10.40;99.90;;;;;;4880898;29;20112;-78
2023/01/07 00:46:02;;;;;;;3.08;2.78;;;10.50;99.90;;;;;;4880314;29;20041;-78
2023/01/07 00:48:28;;;;;;;2.40;2.25;;;10.60;99.90;;;;;;4864587;29;20033;-77
2023/01/07 00:50:54;;;;;;;2.72;2.50;;;10.60;99.90;;;;;;4849351;29;20038;-78
2023/01/07 00:53:20;;;;;;;3.45;3.17;;;10.60;99.90;;;;;;4864084;29;20082;-77
2023/01/07 00:55:48;;;;;;;6.32;2.88;;;10.70;99.90;;;;;;4864731;29;20034;-78
2023/01/07 00:58:18;;;;;;;3.13;2.83;;;10.70;99.90;;;;;;4849421;29;20033;-78
2023/01/07 01:00:44;;;;;;;3.20;2.90;;;10.70;99.90;;;;;;4849270;29;20018;-77
2023/01/07 01:03:11;;;;;;;4.57;3.00;;;10.70;99.90;;;;;;4846705;29;20034;-78
2023/01/07 01:05:37;;;;;;;11.88;2.67;;;10.70;99.90;;;;;;4862678;29;20053;-78
2023/01/07 01:08:03;;;;;;;4.95;2.92;;;10.70;99.90;;;;;;4846350;29;20030;-77
2023/01/07 01:10:29;;;;;;;3.25;2.97;;;10.70;99.90;;;;;;4847096;29;20079;-78
2023/01/07 01:12:55;;;;;;;3.17;2.97;;;10.70;99.90;;;;;;4846653;29;20034;-78
2023/01/07 01:15:21;;;;;;;2.67;2.47;;;10.60;99.90;;;;;;4876761;29;20038;-78
2023/01/07 01:17:50;;;;;;;4.45;2.58;;;10.70;99.90;;;;;;4867959;29;20054;-78
2023/01/07 01:20:16;;;;;;;8.57;3.65;;;10.70;99.90;;;;;;4867921;29;20025;-78
2023/01/07 01:22:43;;;;;;;3.05;2.80;;;10.70;99.90;;;;;;4884548;29;20054;-78
2023/01/07 01:25:10;;;;;;;2.38;2.08;;;10.70;99.90;;;;;;4853884;29;20030;-78
2023/01/07 01:27:36;;;;;;;2.90;2.70;;;10.70;99.90;;;;;;4868230;29;20101;-78
2023/01/07 01:30:03;;;;;;;3.28;2.03;;;10.80;99.90;;;;;;4868363;29;20037;-78
2023/01/07 01:32:30;;;;;;;2.33;2.13;;;10.80;99.90;;;;;;4868070;29;20029;-78
2023/01/07 01:34:55;;;;;;;2.95;2.58;;;10.80;99.90;;;;;;4867854;29;20032;-78
2023/01/07 01:37:22;;;;;;;5.68;2.13;;;10.80;99.90;;;;;;4859558;29;20049;-77
2023/01/07 01:39:47;;;;;;;1.70;1.60;;;10.80;99.90;;;;;;4862934;29;20108;-77
2023/01/07 01:42:21;;;;;;;3.70;2.00;;;10.80;99.90;;;;;;4845203;29;20066;-78
2023/01/07 01:44:52;;;;;;;7.03;2.83;;;10.80;99.90;;;;;;4831191;29;20042;-78
2023/01/07 01:47:41;;;;;;;4.13;2.72;;;10.80;99.90;;;;;;4846892;29;20030;-78
2023/01/07 01:50:19;;;;;;;4.70;3.75;;;10.80;99.90;;;;;;4847185;29;20046;-78
2023/01/07 01:52:58;;;;;;;4.28;3.53;;;10.80;99.90;;;;;;4859963;29;20026;-78
2023/01/07 01:55:29;;;;;;;2.38;2.08;;;10.80;99.90;;;;;;4851118;29;20030;-78
2023/01/07 01:58:01;;;;;;;2.30;2.15;;;10.80;99.90;;;;;;4852427;29;20523;-78
2023/01/07 02:00:28;;;;;;;5.75;3.13;;;10.80;99.90;;;;;;4868090;29;20033;-78
2023/01/07 02:02:56;;;;;;;3.25;3.03;;;10.70;99.90;;;;;;4867578;29;20022;-78
2023/01/07 02:05:30;;;;;;;2.92;1.90;;;10.70;99.90;;;;;;4867675;29;20033;-78
2023/01/07 02:07:56;;;;;;;3.42;2.17;;;10.70;99.90;;;;;;4867695;29;20042;-78
2023/01/07 02:10:23;;;;;;;3.78;1.88;;;10.60;99.90;;;;;;4852413;29;20123;-78
2023/01/07 02:13:09;;;;;;;2.75;2.22;;;10.60;99.90;;;;;;4867477;29;20026;-78
2023/01/07 02:15:47;;;;;;;3.60;2.53;;;10.60;99.90;;;;;;4863135;29;20065;-78
2023/01/07 02:18:39;;;;;;;2.53;2.33;;;10.60;99.90;;;;;;4834409;29;20034;-78
2023/01/07 02:21:39;;;;;;;3.13;1.60;;;10.60;99.90;;;;;;4848567;29;20048;-78
2023/01/07 02:24:18;;;;;;;7.22;2.35;;;10.60;99.90;;;;;;4863226;29;20034;-78
2023/01/07 02:27:29;;;;;;;1.97;1.83;;;10.60;99.90;;;;;;4831238;29;20029;-78
2023/01/07 02:30:06;;;;;;;2.00;1.90;;;10.60;99.90;;;;;;4832744;29;20059;-77
2023/01/07 02:32:50;;;;;;;5.03;2.05;;;10.60;99.90;;;;;;4848230;29;20042;-77
2023/01/07 02:35:36;;;;;;;2.63;2.42;;;10.60;99.90;;;;;;4847116;29;20030;-77
2023/01/07 02:38:31;;;;;;;3.90;2.47;;;10.60;99.90;;;;;;4833096;29;20026;-77
2023/01/07 02:41:21;;;;;;;2.17;2.05;;;10.60;99.90;;;;;;4844832;29;20038;-77
2023/01/07 02:44:09;;;;;;;2.33;2.13;;;10.50;99.90;;;;;;4832567;29;20038;-77
2023/01/07 02:46:37;;;;;;;1.92;1.83;;;10.40;99.90;;;;;;4837140;29;20037;-77
2023/01/07 02:49:08;;;;;;;2.58;2.38;;;10.40;99.90;;;;;;4848665;29;20026;-78
2023/01/07 02:51:36;;;;;;;2.35;1.75;;;10.30;99.90;;;;;;4847522;29;20045;-78
2023/01/07 02:54:05;;;;;;;10.63;2.47;;;10.40;99.90;;;;;;4864342;29;20029;-78
2023/01/07 02:56:41;;;;;;;2.47;2.22;;;10.40;99.90;;;;;;4850042;29;20037;-78
2023/01/07 02:59:35;;;;;;;4.80;3.03;;;10.40;99.90;;;;;;4865663;29;20073;-78
2023/01/07 03:02:43;;;;;;;2.95;2.50;;;10.40;99.90;;;;;;4855442;29;20030;-78
2023/01/07 03:05:25;;;;;;;1.70;1.60;;;10.40;99.90;;;;;;4846265;29;20038;-77
2023/01/07 03:08:03;;;;;;;2.35;2.15;;;10.40;99.90;;;;;;4847152;29;20045;-77
2023/01/07 03:10:54;;;;;;;2.22;2.03;;;10.40;99.90;;;;;;4832374;29;20094;-78
2023/01/07 03:13:24;;;;;;;2.55;2.35;;;10.40;99.90;;;;;;4824079;29;20042;-78
2023/01/07 03:16:01;;;;;;;5.82;2.13;;;10.40;99.90;;;;;;4848052;29;20037;-78
2023/01/07 03:18:33;;;;;;;5.97;2.30;;;10.40;99.90;;;;;;4847764;29;20479;-78
2023/01/07 03:21:04;;;;;;;1.92;1.83;;;10.40;99.90;;;;;;4863804;29;20041;-78
2023/01/07 03:23:30;;;;;;;4.40;2.45;;;10.40;99.90;;;;;;4854483;29;20037;-78
2023/01/07 03:26:00;;;;;;;2.95;2.30;;;10.40;99.90;;;;;;4865549;29;20030;-77
2023/01/07 03:28:34;;;;;;;2.42;2.22;;;10.50;99.90;;;;;;4865418;29;20055;-77
2023/01/07 03:31:02;;;;;;;2.10;1.90;;;10.50;99.90;;;;;;4865234;29;20022;-78
2023/01/07 03:33:55;;;;;;;19.33;3.38;;;10.50;99.90;;;;;;4865827;29;20077;-78
2023/01/07 03:36:28;;;;;;;2.55;2.35;;;10.40;99.90;;;;;;4865873;29;20174;-78
2023/01/07 03:38:55;;;;;;;2.40;2.03;;;10.50;99.90;;;;;;4864396;29;20034;-78
2023/01/07 03:44:06;;;;;;;4.45;2.00;;;10.50;99.90;;;;;;4865347;29;20037;-77
2023/01/07 03:46:33;;;;;;;2.95;2.60;;;10.50;99.90;;;;;;4882337;29;20038;-78
2023/01/07 03:48:59;;;;;;;6.65;1.80;;;10.50;99.90;;;;;;4865791;29;20037;-78
2023/01/07 03:51:26;;;;;;;2.88;1.80;;;10.50;99.90;;;;;;4863721;29;20029;-78
2023/01/07 03:53:52;;;;;;;2.50;2.25;;;10.50;99.90;;;;;;4832222;29;20117;-77
2023/01/07 03:56:18;;;;;;;3.22;2.13;;;10.40;99.90;;;;;;4848111;29;20034;-78
2023/01/07 03:58:44;;;;;;;3.85;2.50;;;10.40;99.90;;;;;;4847242;29;20042;-78
2023/01/07 04:01:10;;;;;;;2.75;2.10;;;10.40;99.90;;;;;;4847005;29;20169;-78
2023/01/07 04:03:36;;;;;;;3.83;2.50;;;10.40;99.90;;;;;;4846771;29;20034;-78
2023/01/07 04:06:02;;;;;;;6.20;1.83;;;10.30;99.90;;;;;;4831393;29;20092;-77
2023/01/07 04:08:28;;;;;;;3.78;1.92;;;10.40;99.90;;;;;;4859428;29;20014;-78
2023/01/07 04:10:54;;;;;;;2.42;1.60;;;10.30;99.90;;;;;;4846695;29;20054;-77
2023/01/07 04:13:20;;;;;;;2.92;2.50;;;10.30;99.90;;;;;;4831052;29;20034;-77
2023/01/07 04:15:48;;;;;;;1.90;1.80;;;10.30;99.90;;;;;;4845198;29;20048;-78
2023/01/07 04:18:14;;;;;;;2.92;2.53;;;10.30;99.90;;;;;;4845942;29;20030;-77
2023/01/07 04:20:43;;;;;;;2.97;2.25;;;10.30;99.90;;;;;;4830042;29;20034;-77
2023/01/07 04:23:09;;;;;;;2.03;1.83;;;10.30;99.90;;;;;;4864623;29;20041;-77
2023/01/07 04:25:35;;;;;;;8.25;3.10;;;10.40;99.90;;;;;;4856765;29;20026;-77
2023/01/07 04:28:03;;;;;;;2.92;1.58;;;10.40;99.90;;;;;;4845655;29;20026;-77
2023/01/07 04:30:29;;;;;;;1.48;1.38;;;10.40;99.90;;;;;;4845613;29;20038;-77
2023/01/07 04:32:55;;;;;;;2.00;1.70;;;10.30;99.90;;;;;;4861939;29;20036;-77
2023/01/07 04:35:21;;;;;;;2.33;1.65;;;10.30;99.90;;;;;;4860106;29;20034;-78
2023/01/07 04:37:47;;;;;;;3.78;2.38;;;10.30;99.90;;;;;;4843945;29;20041;-78
2023/01/07 04:40:13;;;;;;;2.60;1.88;;;10.40;99.90;;;;;;4845047;29;20040;-77
2023/01/07 04:42:39;;;;;;;2.53;1.90;;;10.40;99.90;;;;;;4830406;29;20053;-78
2023/01/07 04:45:07;;;;;;;3.00;1.25;;;10.40;99.90;;;;;;4846060;29;20018;-78
2023/01/07 04:47:33;;;;;;;2.13;1.45;;;10.40;99.90;;;;;;4846656;29;20021;-78
2023/01/07 04:49:59;;;;;;;1.42;1.33;;;10.40;99.90;;;;;;4831349;29;20094;-78
2023/01/07 04:52:29;;;;;;;2.25;2.05;;;10.40;99.90;;;;;;4831257;29;20127;-78
2023/01/07 04:54:55;;;;;;;7.88;1.83;;;10.40;99.90;;;;;;4852591;29;20056;-78
2023/01/07 04:57:21;;;;;;;1.73;1.60;;;10.40;99.90;;;;;;4848452;29;20242;-77
2023/01/07 04:59:47;;;;;;;1.70;1.60;;;10.50;99.90;;;;;;4864463;29;20049;-78
2023/01/07 05:02:12;;;;;;;3.47;1.40;;;10.50;99.90;;;;;;4865088;29;20048;-77
2023/01/07 05:04:38;;;;;;;4.80;2.97;;;10.50;99.90;;;;;;4864454;29;20013;-77
2023/01/07 05:07:04;;;;;;;2.08;1.95;;;10.60;99.90;;;;;;4863565;29;20057;-77
2023/01/07 05:09:30;;;;;;;7.65;2.60;;;10.50;99.90;;;;;;4864502;29;20030;-78
2023/01/07 05:11:56;;;;;;;1.13;1.02;;;10.50;99.90;;;;;;4845751;29;20030;-78
2023/01/07 05:14:22;;;;;;;2.35;1.88;;;10.50;99.90;;;;;;4831540;29;20034;-78
2023/01/07 05:16:52;;;;;;;1.73;1.10;;;10.50;99.90;;;;;;4846246;29;20036;-78
2023/01/07 05:19:20;;;;;;;2.08;0.98;;;10.50;99.90;;;;;;4861660;29;20038;-77
2023/01/07 05:21:47;;;;;;;2.63;2.42;;;10.50;99.90;;;;;;4846533;29;20050;-78
2023/01/07 05:24:14;;;;;;;3.33;1.38;;;10.50;99.90;;;;;;4856752;29;20120;-77
2023/01/07 05:26:40;;;;;;;6.75;2.05;;;10.40;99.90;;;;;;4847284;29;20049;-78
2023/01/07 05:29:08;;;;;;;6.38;1.85;;;10.40;99.90;;;;;;4830327;29;20026;-78
2023/01/07 05:31:34;;;;;;;1.33;1.23;;;10.40;99.90;;;;;;4846776;29;20021;-78
2023/01/07 05:34:00;;;;;;;15.88;2.10;;;10.50;99.90;;;;;;4854501;29;20066;-78
2023/01/07 05:36:27;;;;;;;2.67;1.00;;;10.40;99.90;;;;;;4848806;29;20034;-78
2023/01/07 05:38:54;;;;;;;1.92;1.00;;;10.50;99.90;;;;;;4848111;29;20064;-77
2023/01/07 05:41:20;;;;;;;2.65;2.45;;;10.50;99.90;;;;;;4847275;29;20038;-78
2023/01/07 05:43:46;;;;;;;4.63;1.08;;;10.50;99.90;;;;;;4862034;29;20062;-78
2023/01/07 05:46:12;;;;;;;1.15;1.05;;;10.50;99.90;;;;;;4879207;29;20042;-77
2023/01/07 05:48:37;;;;;;;1.08;0.93;;;10.50;99.90;;;;;;4871196;29;20034;-78
2023/01/07 05:51:03;;;;;;;1.00;1.00;;;10.50;99.90;;;;;;4845570;29;20037;-77
2023/01/07 05:53:29;;;;;;;4.20;1.85;;;10.50;99.90;;;;;;4861440;29;20030;-77
2023/01/07 05:55:56;;;;;;;1.30;1.25;;;10.50;99.90;;;;;;4830206;29;20087;-78
2023/01/07 05:58:22;;;;;;;1.58;1.45;;;10.50;99.90;;;;;;4814792;29;20050;-77
2023/01/07 06:00:48;;;;;;;1.58;1.48;;;10.50;99.90;;;;;;4861046;29;20038;-78
2023/01/07 06:03:14;;;;;;;1.20;0.77;;;10.50;99.90;;;;;;4853505;29;20062;-78
2023/01/07 06:05:39;;;;;;;1.00;1.00;;;10.50;99.90;;;;;;4849271;29;20101;-77
2023/01/07 06:08:05;;;;;;;1.17;1.13;;;10.50;99.90;;;;;;4855202;29;20448;-77
2023/01/07 06:10:31;;;;;;;0.68;0.65;;;10.50;99.90;;;;;;4872357;29;20068;-78
2023/01/07 06:12:57;;;;;;;0.80;0.80;;;10.50;99.90;;;;;;4857581;29;20026;-78
2023/01/07 06:15:23;;;;;;;0.90;0.90;;;10.50;99.90;;;;;;4826370;29;20041;-78
2023/01/07 06:17:49;;;;;;;1.67;1.58;;;10.50;99.90;;;;;;4842641;29;20033;-78
2023/01/07 06:20:15;;;;;;;1.33;1.02;;;10.50;99.90;;;;;;4856141;29;20025;-78
2023/01/07 06:22:42;;;;;;;0.60;0.60;;;10.50;99.90;;;;;;4853695;29;20033;-78
2023/01/07 06:25:08;;;;;;;0.77;0.77;;;10.50;99.90;;;;;;4855347;29;20030;-78
2023/01/07 06:27:34;;;;;;;1.42;0.95;;;10.50;99.90;;;;;;4843582;29;20037;-78
2023/01/07 06:30:00;;;;;;;1.02;0.93;;;10.50;99.90;;;;;;4854316;29;20030;-78
2023/01/07 06:32:26;;;;;;;1.75;1.27;;;10.50;99.90;;;;;;4865001;29;20034;-78
2023/01/07 06:34:52;;;;;;;0.63;0.63;;;10.40;99.90;;;;;;4882330;29;20024;-78
2023/01/07 06:37:18;;;;;;;1.13;1.13;;;10.40;99.90;;;;;;4846857;29;20034;-78
2023/01/07 06:39:44;;;;;;;0.95;0.63;;;10.40;99.90;;;;;;4847508;29;20041;-78
2023/01/07 06:42:10;;;;;;;1.45;0.85;;;10.40;99.90;;;;;;4828090;29;20033;-78
2023/01/07 06:44:36;;;;;;;2.35;1.45;;;10.40;99.90;;;;;;4849172;29;20037;-78
2023/01/07 06:47:02;;;;;;;1.42;0.98;;;10.40;99.90;;;;;;4838572;29;20074;-78
2023/01/07 06:49:28;;;;;;;0.77;0.70;;;10.40;99.90;;;;;;4882012;29;20049;-78
2023/01/07 06:51:54;;;;;;;2.45;1.33;;;10.40;99.90;;;;;;4860704;29;20037;-79
2023/01/07 06:54:20;;;;;;;0.73;0.73;;;10.40;99.90;;;;;;4857550;29;20030;-78
2023/01/07 06:56:45;;;;;;;0.75;0.75;;;10.40;99.90;;;;;;4845210;29;20038;-78
2023/01/07 06:59:11;;;;;;;1.23;1.10;;;10.30;99.90;;;;;;4855205;29;20522;-78
2023/01/07 07:01:38;;;;;;;2.97;1.65;;;10.40;99.90;;;;;;4880158;29;20034;-78
2023/01/07 07:04:03;;;;;;;4.18;1.17;;;10.40;99.90;;;;;;4870179;29;20038;-78
2023/01/07 07:06:29;;;;;;;0.93;0.93;;;10.40;99.90;;;;;;4861850;29;20082;-78
2023/01/07 07:08:55;;;;;;;2.20;1.73;;;10.40;99.90;;;;;;4851326;29;20041;-78
2023/01/07 07:11:21;;;;;;;0.98;0.90;;;10.30;99.90;;;;;;4847602;29;20018;-78
2023/01/07 07:13:46;;;;;;;1.00;0.95;;;10.40;99.90;;;;;;4881582;29;20046;-78
2023/01/07 07:16:13;;;;;;;0.77;0.75;;;10.40;99.90;;;;;;4862579;29;20033;-78
2023/01/07 07:18:39;;;;;;;0.88;0.88;;;10.40;99.90;;;;;;4877843;29;20038;-78
2023/01/07 07:21:05;;;;;;;0.90;0.90;;;10.40;99.90;;;;;;4845827;29;20044;-78
2023/01/07 07:23:31;;;;;;;1.13;1.02;;;10.30;99.90;;;;;;4844887;29;20064;-78
2023/01/07 07:25:56;;;;;;;0.88;0.88;;;10.30;99.90;;;;;;4845277;29;20042;-78
2023/01/07 07:28:22;;;;;;;1.25;1.25;;;10.40;99.90;;;;;;4852254;29;20425;-78
2023/01/07 07:30:48;;;;;;;3.03;2.83;;;10.40;99.90;;;;;;4853179;29;20038;-78
2023/01/07 07:33:17;;;;;;;11.35;8.38;;;10.40;99.90;;;;;;4873117;29;20033;-78
2023/01/07 07:35:43;;;;;;;3.05;2.33;;;10.40;99.90;;;;;;4856162;29;20074;-77
2023/01/07 07:38:09;;;;;;;3.83;3.38;;;10.40;99.90;;;;;;4881733;29;20026;-78
2023/01/07 07:40:35;;;;;;;2.63;2.22;;;10.40;99.90;;;;;;4849858;29;20030;-78
2023/01/07 07:43:01;;;;;;;1.83;1.73;;;10.40;99.90;;;;;;4847287;29;20387;-78
2023/01/07 07:45:27;;;;;;;1.75;1.63;;;10.40;99.90;;;;;;4875226;29;20026;-78
2023/01/07 07:47:52;;;;;;;2.55;1.77;;;10.50;99.90;;;;;;4857058;29;20042;-78
2023/01/07 07:50:18;;;;;;;1.90;1.38;;;10.50;99.90;;;;;;4855515;29;20118;-78
2023/01/07 07:52:45;;;;;;;0.68;0.68;;;10.50;99.90;;;;;;4881013;29;20038;-78
2023/01/07 07:55:10;;;;;;;0.77;0.77;;;10.50;99.90;;;;;;4854257;29;20066;-78
2023/01/07 07:57:36;;;;;;;1.83;0.75;;;10.50;99.90;;;;;;4843377;29;20041;-78
2023/01/07 08:00:04;;;;;;;1.15;1.05;;;10.50;99.90;;;;;;4880856;29;20037;-77
2023/01/07 08:02:38;;;;;;;2.20;0.90;;;10.60;99.90;;;;;;4865311;29;20034;-77
2023/01/07 08:05:04;;;;;;;1.15;1.05;;;10.60;99.90;;;;;;4832086;29;20030;-77
2023/01/07 08:07:30;;;;;;;2.47;1.17;;;10.60;99.90;;;;;;4874014;29;20059;-78
2023/01/07 08:09:55;;;;;;;0.63;0.63;;;10.60;99.90;;;;;;4848983;29;20041;-77
2023/01/07 08:12:21;;;;;;;0.50;0.50;;;10.70;99.90;;;;;;4846831;29;20038;-78
2023/01/07 08:14:47;;;;;;;0.85;0.82;;;10.70;99.90;;;;;;4875843;29;20564;-78
2023/01/07 08:17:13;;;;;;;2.13;1.55;;;10.70;99.90;;;;;;4862840;29;20101;-78
2023/01/07 08:19:38;;;;;;;1.38;0.77;;;10.70;99.90;;;;;;4858947;29;20042;-77
2023/01/07 08:22:04;;;;;;;0.55;0.55;;;10.70;99.90;;;;;;4858635;29;20038;-78
2023/01/07 08:24:30;;;;;;;1.10;1.10;;;10.80;99.90;;;;;;4865183;29;20038;-76
2023/01/07 08:26:56;;;;;;;1.23;0.80;;;10.70;99.90;;;;;;4874671;29;20043;-76
2023/01/07 08:29:23;;;;;;;4.75;1.10;;;10.70;99.90;;;;;;4859223;29;20109;-77
2023/01/07 08:31:48;;;;;;;0.52;0.50;;;10.70;99.90;;;;;;4876939;29;20085;-76
2023/01/07 08:34:15;;;;;;;3.83;3.13;;;10.70;99.90;;;;;;4876056;29;20037;-76
2023/01/07 08:36:41;;;;;;;2.05;1.63;;;10.70;99.90;;;;;;4890741;29;20045;-76
2023/01/07 08:39:07;;;;;;;3.38;2.92;;;10.70;99.90;;;;;;4858205;29;20030;-76
2023/01/07 08:41:33;;;;;;;0.50;0.50;;;10.70;99.90;;;;;;4879794;29;20037;-76
2023/01/07 08:43:58;;;;;;;0.63;0.63;;;10.70;99.90;;;;;;4864117;29;20037;-76
2023/01/07 08:46:24;;;;;;;1.92;1.15;;;10.70;99.90;;;;;;4863626;29;20037;-77
2023/01/07 08:48:50;;;;;;;1.25;0.77;;;10.70;99.90;;;;;;4863304;29;20512;-76
2023/01/07 08:51:16;;;;;;;1.10;0.85;;;10.80;99.90;;;;;;4872762;29;20026;-76
2023/01/07 08:53:42;;;;;;;0.77;0.77;;;10.80;99.90;;;;;;4878140;29;20072;-76
2023/01/07 08:56:08;;;;;;;0.88;0.88;;;10.80;99.90;;;;;;4879551;29;20057;-76
2023/01/07 08:58:33;;;;;;;0.50;0.50;;;10.80;99.90;;;;;;4878940;29;20034;-76
2023/01/07 09:01:01;;;;;;;3.28;1.10;;;10.80;99.90;;;;;;4879121;29;20037;-75
2023/01/07 09:03:27;;;;;;;1.45;0.98;;;10.90;99.90;;;;;;4860418;29;20085;-76
2023/01/07 09:05:53;;;;;;;0.68;0.68;;;10.90;99.90;;;;;;4849065;29;20115;-76
2023/01/07 09:08:19;;;;;;;0.93;0.52;;;10.90;99.90;;;;;;4849185;29;20048;-75
2023/01/07 09:10:45;;;;;;;3.15;0.77;;;10.90;99.90;;;;;;4865135;29;20026;-76
2023/01/07 09:13:11;;;;;;;0.50;0.50;;;10.90;99.90;;;;;;4846197;29;20487;-76
2023/01/07 09:15:37;;;;;;;0.73;0.43;;;11.00;99.90;;;;;;4863368;29;20042;-76
2023/01/07 09:18:03;;;;;;;0.60;0.60;;;11.00;99.90;;;;;;4845468;29;20407;-76
2023/01/07 09:20:29;;;;;;;0.57;0.57;;;11.00;99.90;;;;;;4865711;29;20033;-77
2023/01/07 09:22:55;;;;;;;2.78;1.02;;;11.00;99.90;;;;;;4865177;29;20036;-77
2023/01/07 09:25:21;;;;;;;0.65;0.65;;;11.10;99.90;;;;;;4866897;29;20042;-76
2023/01/07 09:27:48;;;;;;;0.40;0.38;;;11.10;99.90;;;;;;4866185;29;20090;-76
2023/01/07 09:30:14;;;;;;;0.88;0.60;;;11.20;99.90;;;;;;4845663;29;20112;-77
2023/01/07 09:32:42;;;;;;;0.52;0.52;;;11.20;99.90;;;;;;4852765;29;20057;-76
2023/01/07 09:35:08;;;;;;;0.28;0.28;;;11.70;99.90;;;;;;4863335;29;20037;-76
2023/01/07 09:37:34;;;;;;;1.98;0.60;;;12.30;99.90;;;;;;4848492;29;20086;-76
2023/01/07 09:40:00;;;;;;;0.80;0.80;;;12.70;99.90;;;;;;4853825;29;20025;-76
2023/01/07 09:42:38;;;;;;;2.47;1.00;;;12.90;99.90;;;;;;4867372;29;20042;-76
2023/01/07 09:45:09;;;;;;;2.20;1.10;;;12.90;99.90;;;;;;4852672;29;20521;-76
2023/01/07 09:47:37;;;;;;;1.83;0.80;;;13.30;99.90;;;;;;4856447;29;20472;-77
2023/01/07 09:50:23;;;;;;;0.50;0.50;;;13.50;99.90;;;;;;4865428;29;20037;-76
2023/01/07 09:52:52;;;;;;;0.47;0.45;;;14.20;99.90;;;;;;4862803;29;20022;-76
2023/01/07 09:55:39;;;;;;;1.07;0.50;;;14.40;99.90;;;;;;4858065;29;20053;-77
2023/01/07 09:58:12;;;;;;;0.85;0.85;;;14.70;99.90;;;;;;4864951;29;20090;-76
2023/01/07 10:00:57;;;;;;;0.50;0.50;;;14.70;99.90;;;;;;4865994;29;20056;-76
2023/01/07 10:03:32;;;;;;;0.35;0.35;;;15.40;99.90;;;;;;4856548;29;20038;-76
2023/01/07 10:06:14;;;;;;;0.43;0.40;;;16.00;99.90;;;;;;4840431;29;20117;-76
2023/01/07 10:09:09;;;;;;;0.50;0.50;;;15.90;99.90;;;;;;4869453;29;20429;-75
2023/01/07 10:12:03;;;;;;;1.70;0.30;;;15.80;99.90;;;;;;4844598;29;20029;-76
2023/01/07 10:14:37;;;;;;;0.65;0.65;;;15.40;99.90;;;;;;4829144;29;20064;-76
2023/01/07 10:17:25;;;;;;;1.30;1.20;;;15.50;99.90;;;;;;4863991;29;20034;-75
2023/01/07 10:19:54;;;;;;;0.52;0.52;;;15.00;99.90;;;;;;4847704;29;20034;-76
2023/01/07 10:22:24;;;;;;;0.43;0.43;;;14.80;99.90;;;;;;4845424;29;20097;-75
2023/01/07 10:24:55;;;;;;;0.75;0.52;;;14.80;99.90;;;;;;4844347;29;20045;-77
2023/01/07 10:27:31;;;;;;;1.13;0.50;;;14.30;99.90;;;;;;4868464;29;20046;-76
2023/01/07 10:30:05;;;;;;;0.20;0.20;;;14.30;99.90;;;;;;4876315;29;20026;-76
2023/01/07 10:32:35;;;;;;;1.00;0.65;;;13.60;99.90;;;;;;4845896;29;20114;-76
2023/01/07 10:35:01;;;;;;;0.75;0.60;;;13.20;99.90;;;;;;4861437;29;20045;-76
2023/01/07 10:37:39;;;;;;;0.50;0.50;;;13.00;99.90;;;;;;4864188;29;20062;-76
2023/01/07 10:40:20;;;;;;;0.82;0.80;;;13.60;99.90;;;;;;4860003;29;20049;-75
2023/01/07 10:43:29;;;;;;;2.67;0.90;;;13.50;99.90;;;;;;4846057;29;20042;-76
2023/01/07 10:46:23;;;;;;;0.40;0.40;;;13.50;99.90;;;;;;4845633;29;20038;-75
2023/01/07 10:49:21;;;;;;;1.45;0.80;;;13.70;99.90;;;;;;4854627;29;20049;-76
2023/01/07 10:52:08;;;;;;;0.50;0.50;;;13.70;99.90;;;;;;4876054;29;20034;-76
2023/01/07 10:55:01;;;;;;;0.80;0.80;;;13.60;99.90;;;;;;4859149;29;20029;-75
2023/01/07 10:57:28;;;;;;;1.55;0.85;;;13.30;99.90;;;;;;4850087;29;20033;-75
2023/01/07 10:59:58;;;;;;;1.38;0.75;;;13.10;99.90;;;;;;4846636;29;20037;-75
2023/01/07 11:02:26;;;;;;;0.52;0.52;;;12.90;99.90;;;;;;4874261;29;20041;-76
2023/01/07 11:04:56;;;;;;;0.50;0.50;;;13.00;99.90;;;;;;4874708;29;20041;-76
2023/01/07 11:07:39;;;;;;;0.35;0.35;;;13.20;99.90;;;;;;4837600;29;20070;-78
2023/01/07 11:10:11;;;;;;;0.52;0.47;;;13.30;99.90;;;;;;4851220;29;20033;-75
2023/01/07 11:12:48;;;;;;;0.55;0.47;;;13.30;99.90;;;;;;4839490;29;20026;-75
2023/01/07 11:15:34;;;;;;;0.70;0.35;;;13.00;99.90;;;;;;4840149;29;20053;-75
2023/01/07 11:18:10;;;;;;;1.13;0.70;;;12.70;99.90;;;;;;4856502;29;20063;-76
2023/01/07 11:20:48;;;;;;;0.40;0.40;;;12.80;99.90;;;;;;4856379;29;20054;-75
2023/01/07 11:23:37;;;;;;;0.45;0.45;;;12.90;99.90;;;;;;4840025;29;20034;-75
2023/01/07 11:26:08;;;;;;;0.93;0.57;;;13.00;99.90;;;;;;4873505;29;20455;-76
2023/01/07 11:28:36;;;;;;;0.90;0.90;;;13.10;99.90;;;;;;4871312;29;20033;-76
2023/01/07 11:31:02;;;;;;;1.95;0.75;;;13.50;99.90;;;;;;4858115;29;20032;-76
2023/01/07 11:33:49;;;;;;;1.13;0.77;;;13.60;99.90;;;;;;4854880;29;20026;-76
2023/01/07 11:36:15;;;;;;;2.60;1.20;;;13.20;99.90;;;;;;4858211;29;20048;-76
2023/01/07 11:38:41;;;;;;;0.82;0.82;;;13.10;99.90;;;;;;4824231;29;20041;-75
2023/01/07 11:41:23;;;;;;;0.80;0.73;;;13.10;99.90;;;;;;4824583;29;20064;-75
2023/01/07 11:43:51;;;;;;;1.23;1.13;;;13.10;99.90;;;;;;4839559;29;20038;-75
2023/01/07 11:46:19;;;;;;;0.73;0.73;;;12.90;99.90;;;;;;4843489;29;20476;-76
2023/01/07 11:48:53;;;;;;;1.02;1.02;;;13.10;99.90;;;;;;4874321;29;20033;-75
2023/01/07 11:51:21;;;;;;;1.95;0.77;;;13.20;99.90;;;;;;4873818;29;20093;-75
2023/01/07 11:53:56;;;;;;;0.98;0.98;;;13.30;99.90;;;;;;4864188;29;20121;-75
2023/01/07 11:56:32;;;;;;;0.85;0.80;;;13.30;99.90;;;;;;4842934;29;20065;-75
2023/01/07 11:59:19;;;;;;;0.75;0.75;;;13.40;99.90;;;;;;4878673;29;20033;-75
2023/01/07 12:01:48;;;;;;;1.13;1.13;;;13.40;99.90;;;;;;4857231;29;20060;-75
2023/01/07 12:04:35;;;;;;;2.35;2.15;;;13.40;99.90;;;;;;4857948;29;20049;-75
2023/01/07 12:07:05;;;;;;;1.45;0.95;;;13.50;99.90;;;;;;4838890;29;20061;-74
2023/01/07 12:09:31;;;;;;;1.48;1.15;;;13.30;99.90;;;;;;4858058;29;20077;-74
2023/01/07 12:12:04;;;;;;;1.45;1.35;;;13.30;99.90;;;;;;4862615;29;20058;-75
2023/01/07 12:14:33;;;;;;;0.90;0.90;;;13.50;99.90;;;;;;4847368;29;20417;-75
2023/01/07 12:17:10;;;;;;;1.15;0.98;;;13.50;99.90;;;;;;4854162;29;20454;-75
2023/01/07 12:20:01;;;;;;;1.25;1.15;;;13.20;99.90;;;;;;4832933;29;20089;-75
2023/01/07 12:22:35;;;;;;;1.88;1.77;;;13.30;99.90;;;;;;4871064;29;20037;-75
2023/01/07 12:25:17;;;;;;;1.55;1.45;;;13.40;99.90;;;;;;4857446;29;20052;-76
2023/01/07 12:27:55;;;;;;;0.98;0.98;;;13.40;99.90;;;;;;4857145;29;20037;-75
2023/01/07 12:30:34;;;;;;;1.08;1.08;;;13.50;99.90;;;;;;4844974;29;20033;-75
2023/01/07 12:33:16;;;;;;;1.23;0.80;;;13.30;99.90;;;;;;4851109;29;20475;-76
2023/01/07 12:35:44;;;;;;;1.42;1.27;;;13.00;99.90;;;;;;4855050;29;20034;-75
2023/01/07 12:38:15;;;;;;;1.42;0.95;;;13.00;99.90;;;;;;4855095;29;20527;-75
2023/01/07 12:40:54;;;;;;;5.57;1.95;;;12.90;99.90;;;;;;4849768;29;20065;-75
2023/01/07 12:43:33;;;;;;;1.13;1.13;;;12.80;99.90;;;;;;4846253;29;20041;-76
2023/01/07 12:46:21;;;;;;;0.93;0.93;;;12.80;99.90;;;;;;4856354;29;20073;-77
2023/01/07 12:49:10;;;;;;;1.73;1.63;;;12.70;99.90;;;;;;4857482;29;20081;-77
2023/01/07 12:51:51;;;;;;;1.67;1.58;;;12.80;99.90;;;;;;4855477;29;20040;-77
2023/01/07 12:54:55;;;;;;;1.30;1.30;;;12.90;99.90;;;;;;4876745;29;20040;-77
2023/01/07 12:57:24;;;;;;;2.70;1.27;;;13.30;99.90;;;;;;4830832;29;20484;-77
2023/01/07 13:00:07;;;;;;;2.38;1.73;;;13.30;99.90;;;;;;4857979;29;20087;-77
2023/01/07 13:03:02;;;;;;;1.58;1.48;;;13.40;99.90;;;;;;4841090;29;20054;-76
2023/01/07 13:05:55;;;;;;;1.58;1.25;;;13.50;99.90;;;;;;4855470;29;20078;-77
2023/01/07 13:08:33;;;;;;;1.90;1.58;;;13.50;99.90;;;;;;4849665;29;20489;-77
2023/01/07 13:11:09;;;;;;;2.75;1.40;;;13.60;99.90;;;;;;4859317;29;20086;-77